Terminal Aerodrome Forecast
Issued by NWS

Home | Current Version | Previous Version | Text Only | Print | Product List | Glossary On
Versions: 1 2 3 4 5 6 7 8 9 10 11 12 13 14
481
FTUS43 KOAX 251121
TAFBFF
TAF
KBFF 251121Z 2512/2612 07011KT P6SM BKN070
     FM251700 13010KT P6SM SCT050 BKN100=

USA.gov is the U.S. government's official web portal to all federal, state and local government web resources and services.